Time;durP1;ratioP1;P1;durP2;ratioP2;P2;SDS_P1;SDS_P2;PMS_P1;PMS_P2;Temp;Humidity;BMP_temperature;BMP_pressure;BME280_temperature;BME280_humidity;BME280_pressure;Samples;Min_cycle;Max_cycle;Signal;HPM_P1;HPM_P2
2023/01/11 00:01:44;;;;;;;7.13;1.90;;;5.80;99.90;;;4.82;100.00;97496.09;5073969;28;20395;-74
2023/01/11 00:04:10;;;;;;;4.53;1.90;;;5.90;99.90;;;4.80;100.00;97503.41;5073969;28;20899;-73
2023/01/11 00:06:36;;;;;;;6.03;1.95;;;5.90;99.90;;;4.81;100.00;97494.50;5073622;28;20404;-73
2023/01/11 00:09:01;;;;;;;3.03;1.67;;;5.90;99.90;;;5.00;100.00;97493.56;5073769;28;20415;-73
2023/01/11 00:11:27;;;;;;;3.47;1.92;;;6.00;99.90;;;4.98;100.00;97497.41;5073800;28;20427;-73
2023/01/11 00:13:53;;;;;;;4.38;1.90;;;6.00;99.90;;;4.81;100.00;97499.75;5073504;28;20502;-73
2023/01/11 00:16:20;;;;;;;3.93;1.90;;;5.90;99.90;;;4.77;100.00;97495.94;5073607;28;20906;-73
2023/01/11 00:18:46;;;;;;;3.55;1.70;;;5.90;99.90;;;4.81;100.00;97483.22;5073479;28;20407;-74
2023/01/11 00:21:12;;;;;;;4.88;1.70;;;5.90;99.90;;;4.81;100.00;97489.25;5073443;28;20412;-73
2023/01/11 00:23:38;;;;;;;5.82;1.92;;;5.90;99.90;;;4.81;100.00;97491.88;5073284;28;20406;-73
2023/01/11 00:26:06;;;;;;;8.63;2.00;;;5.90;99.90;;;4.86;100.00;97489.44;5073348;28;20423;-74
2023/01/11 00:28:33;;;;;;;4.68;2.10;;;5.90;99.90;;;4.84;100.00;97480.16;5073279;28;20516;-74
2023/01/11 00:30:58;;;;;;;3.50;1.80;;;5.90;99.90;;;4.82;100.00;97476.94;5073244;28;20892;-73
2023/01/11 00:33:26;;;;;;;3.70;1.88;;;5.90;99.90;;;4.95;100.00;97471.63;5073363;28;20406;-74
2023/01/11 00:35:52;;;;;;;3.97;1.75;;;6.00;99.90;;;4.89;100.00;97461.97;5073159;28;20411;-74
2023/01/11 00:38:42;;;;;;;5.63;2.30;;;6.00;99.90;;;4.88;100.00;97461.19;5072987;28;20489;-72
2023/01/11 00:49:19;;;;;;;5.65;2.00;;;6.00;99.90;;;4.92;100.00;97443.19;5072902;28;20462;-74
2023/01/11 00:51:45;;;;;;;2.75;1.63;;;6.00;99.90;;;4.89;100.00;97438.34;5072949;28;20911;-74
2023/01/11 00:54:11;;;;;;;5.65;2.10;;;6.00;99.90;;;4.92;100.00;97435.31;5072933;28;20457;-74
2023/01/11 00:56:37;;;;;;;5.65;1.83;;;6.10;99.90;;;4.91;100.00;97431.09;5072667;28;20490;-74
2023/01/11 00:59:03;;;;;;;6.60;1.77;;;6.00;99.90;;;4.91;100.00;97433.72;5072835;28;20399;-74
2023/01/11 01:01:30;;;;;;;2.90;1.73;;;6.00;99.90;;;4.89;100.00;97427.88;5072817;28;20468;-75
2023/01/11 01:03:56;;;;;;;5.28;1.90;;;6.00;99.90;;;4.92;100.00;97419.59;5072713;28;20484;-74
2023/01/11 01:06:23;;;;;;;3.83;1.60;;;6.00;99.90;;;4.99;100.00;97425.59;5072517;28;20461;-74
2023/01/11 01:08:49;;;;;;;3.83;1.90;;;6.10;99.90;;;4.93;100.00;97418.56;5071252;28;20427;-74
2023/01/11 01:11:15;;;;;;;3.70;1.60;;;6.00;99.90;;;4.86;100.00;97421.25;5072656;28;20521;-74
2023/01/11 01:16:26;;;;;;;2.95;1.70;;;6.00;99.90;;;5.09;100.00;97414.59;5072452;28;20445;-74
2023/01/11 01:18:52;;;;;;;4.90;2.03;;;6.10;99.90;;;5.12;100.00;97414.16;5072668;28;20432;-74
2023/01/11 01:21:18;;;;;;;2.47;1.60;;;6.20;99.90;;;4.94;100.00;97414.94;5072456;28;20803;-74
2023/01/11 01:23:45;;;;;;;5.00;2.00;;;6.10;99.90;;;4.95;100.00;97425.22;5072288;28;20403;-73
2023/01/11 01:26:11;;;;;;;4.22;1.70;;;6.10;99.90;;;5.02;100.00;97428.59;5072268;28;20408;-74
2023/01/11 01:28:37;;;;;;;2.92;1.52;;;6.10;99.90;;;5.02;100.00;97418.09;5070851;28;20473;-73
2023/01/11 01:31:03;;;;;;;3.80;1.80;;;6.10;99.90;;;5.04;100.00;97421.28;5072313;28;20423;-73
2023/01/11 01:33:29;;;;;;;3.92;1.50;;;6.20;99.90;;;4.96;100.00;97428.66;5072297;28;20404;-74
2023/01/11 01:35:54;;;;;;;3.10;1.75;;;6.10;99.90;;;4.90;100.00;97432.91;5072188;28;20407;-73
2023/01/11 01:38:20;;;;;;;3.90;1.73;;;6.00;99.90;;;4.92;100.00;97420.38;5072225;28;20392;-73
2023/01/11 01:40:48;;;;;;;4.00;1.67;;;6.10;99.90;;;4.89;100.00;97417.38;5071866;28;20414;-73
2023/01/11 01:43:16;;;;;;;5.35;1.60;;;6.00;99.90;;;4.82;100.00;97414.00;5071975;28;20502;-74
2023/01/11 01:45:42;;;;;;;1.85;1.48;;;6.00;99.90;;;4.88;100.00;97413.97;5071835;28;20803;-73
2023/01/11 01:48:14;;;;;;;3.00;1.70;;;6.00;99.90;;;4.81;100.00;97410.56;5071912;28;20411;-73
2023/01/11 01:50:46;;;;;;;2.85;1.52;;;6.00;99.90;;;4.84;100.00;97404.91;5071883;28;20498;-73
2023/01/11 01:53:17;;;;;;;2.63;1.48;;;5.90;99.90;;;4.77;100.00;97403.38;5071858;28;20459;-73
2023/01/11 01:55:50;;;;;;;4.13;1.60;;;5.90;99.90;;;4.75;100.00;97403.56;5071141;28;20465;-73
2023/01/11 01:58:21;;;;;;;5.75;1.63;;;5.90;99.90;;;4.76;100.00;97391.25;5071746;28;20432;-72
2023/01/11 02:00:47;;;;;;;4.47;1.50;;;5.90;99.90;;;4.72;100.00;97392.72;5071706;28;20825;-73
2023/01/11 02:03:18;;;;;;;2.20;1.60;;;5.80;99.90;;;4.65;100.00;97390.97;5071658;28;20495;-73
2023/01/11 02:05:45;;;;;;;4.65;1.67;;;5.80;99.90;;;4.63;100.00;97398.22;5071417;28;20865;-73
2023/01/11 02:08:23;;;;;;;5.35;1.83;;;5.80;99.90;;;4.71;100.00;97388.50;5071438;28;20419;-73
2023/01/11 02:10:51;;;;;;;2.85;1.63;;;5.80;99.90;;;4.72;100.00;97388.28;5071404;28;20465;-73
2023/01/11 02:13:18;;;;;;;3.63;1.60;;;5.90;99.90;;;4.77;100.00;97387.63;5071340;28;20388;-73
2023/01/11 02:15:44;;;;;;;4.30;1.73;;;5.90;99.90;;;4.90;100.00;97398.81;5071305;28;20404;-73
2023/01/11 02:18:12;;;;;;;2.17;1.60;;;5.90;99.90;;;4.88;100.00;97384.31;5071304;28;20399;-73
2023/01/11 02:20:59;;;;;;;2.40;1.42;;;5.90;99.90;;;4.89;100.00;97376.22;5071247;28;20475;-73
2023/01/11 02:24:15;;;;;;;2.25;1.52;;;5.90;99.90;;;4.90;100.00;97372.59;5071060;28;20443;-73
2023/01/11 02:27:18;;;;;;;5.15;1.60;;;6.00;99.90;;;5.00;100.00;97364.22;5071032;28;20824;-73
2023/01/11 02:29:57;;;;;;;3.20;1.48;;;6.10;99.90;;;5.00;100.00;97359.78;5068114;28;20537;-72
2023/01/11 02:32:31;;;;;;;1.83;1.50;;;6.10;99.90;;;5.05;100.00;97351.25;5071001;28;21191;-73
2023/01/11 02:35:12;;;;;;;2.72;1.50;;;6.10;99.90;;;5.15;100.00;97350.78;5070804;28;20506;-73
2023/01/11 02:37:52;;;;;;;6.27;1.70;;;6.20;99.90;;;5.10;100.00;97338.31;5071002;28;20508;-73
2023/01/11 02:40:26;;;;;;;2.60;1.55;;;6.20;99.90;;;5.07;100.00;97346.59;5070757;28;20404;-73
2023/01/11 02:46:00;;;;;;;3.85;1.30;;;6.20;99.90;;;5.11;100.00;97352.25;5070625;28;20825;-73
2023/01/11 02:48:36;;;;;;;2.70;1.50;;;6.20;99.90;;;5.11;100.00;97349.63;5070638;28;20411;-73
2023/01/11 02:51:11;;;;;;;2.60;1.40;;;6.20;99.90;;;5.20;100.00;97356.97;5070574;28;20415;-73
2023/01/11 02:53:42;;;;;;;1.55;1.30;;;6.20;99.90;;;5.28;100.00;97356.69;5070521;28;20399;-74
2023/01/11 02:56:14;;;;;;;3.78;1.70;;;6.40;99.90;;;5.23;100.00;97355.75;5070692;28;20453;-75
2023/01/11 02:58:45;;;;;;;1.95;1.45;;;6.30;99.90;;;5.27;100.00;97354.28;5070597;28;20453;-74
2023/01/11 03:01:13;;;;;;;4.35;1.40;;;6.40;99.90;;;5.39;100.00;97347.28;5070737;28;20412;-74
2023/01/11 03:03:39;;;;;;;2.40;1.53;;;6.40;99.90;;;5.36;100.00;97342.47;5070745;28;20570;-74
2023/01/11 03:06:12;;;;;;;3.13;1.60;;;6.40;99.90;;;5.39;100.00;97350.72;5070618;28;20415;-74
2023/01/11 03:09:13;;;;;;;1.80;1.42;;;6.50;99.90;;;5.47;100.00;97340.94;5069558;28;20495;-75
2023/01/11 03:14:54;;;;;;;2.67;1.40;;;6.50;99.90;;;5.54;100.00;97350.34;5070577;28;20781;-74
2023/01/11 03:17:36;;;;;;;2.15;1.23;;;6.50;99.90;;;5.63;100.00;97337.72;5070499;28;20446;-74
2023/01/11 03:20:13;;;;;;;4.90;1.70;;;6.60;99.90;;;5.61;100.00;97343.19;5070279;28;20474;-75
2023/01/11 03:22:53;;;;;;;3.80;1.50;;;6.70;99.90;;;5.56;100.00;97342.25;5070245;28;20396;-73
2023/01/11 03:25:29;;;;;;;1.63;1.30;;;6.60;99.90;;;5.55;100.00;97343.28;5070087;28;20851;-74
2023/01/11 03:28:01;;;;;;;2.83;1.50;;;6.60;99.90;;;5.53;100.00;97345.31;5070241;28;20400;-73
2023/01/11 03:30:32;;;;;;;2.55;1.40;;;6.60;99.90;;;5.57;100.00;97351.72;5070362;28;20541;-74
2023/01/11 03:33:07;;;;;;;2.47;1.20;;;6.60;99.90;;;5.77;100.00;97342.59;5070241;28;20427;-74
2023/01/11 03:35:42;;;;;;;2.20;1.20;;;6.80;99.90;;;5.64;100.00;97337.50;5070190;28;20479;-73
2023/01/11 03:38:16;;;;;;;2.50;1.40;;;6.70;99.90;;;5.69;100.00;97339.47;5070432;28;20388;-75
2023/01/11 03:40:48;;;;;;;2.10;1.40;;;6.70;99.90;;;5.68;100.00;97327.38;5070098;28;20396;-74
2023/01/11 03:43:17;;;;;;;3.72;1.50;;;6.70;99.90;;;5.82;100.00;97334.03;5070204;28;20395;-74
2023/01/11 03:45:52;;;;;;;1.75;1.40;;;6.70;99.90;;;5.73;100.00;97328.28;5070185;28;20901;-74
2023/01/11 03:48:26;;;;;;;1.88;1.55;;;6.80;99.90;;;5.69;100.00;97327.16;5070020;28;20448;-73
2023/01/11 03:50:54;;;;;;;1.57;1.40;;;6.70;99.90;;;5.57;100.00;97325.47;5070142;28;20402;-74
2023/01/11 03:53:24;;;;;;;2.45;1.40;;;6.60;99.90;;;5.46;100.00;97324.41;5070033;28;20406;-73
2023/01/11 03:55:55;;;;;;;2.80;1.30;;;6.50;99.90;;;5.51;100.00;97319.28;5070166;28;20399;-74
2023/01/11 03:58:22;;;;;;;2.05;1.30;;;6.60;99.90;;;5.54;100.00;97310.16;5070156;28;20402;-74
2023/01/11 04:00:49;;;;;;;1.48;1.38;;;6.60;99.90;;;5.63;100.00;97312.28;5070042;28;20400;-75
2023/01/11 04:03:15;;;;;;;2.75;1.30;;;6.60;99.90;;;5.62;100.00;97302.78;5069966;28;20892;-74
2023/01/11 04:05:45;;;;;;;1.25;1.15;;;6.70;99.90;;;5.57;100.00;97307.88;5069909;28;20404;-73
2023/01/11 04:08:11;;;;;;;2.45;1.10;;;6.60;99.90;;;5.59;100.00;97299.78;5070005;28;20530;-72
2023/01/11 04:10:38;;;;;;;2.40;1.50;;;6.70;99.90;;;5.63;100.00;97301.78;5069924;28;20533;-72
2023/01/11 04:13:04;;;;;;;1.50;1.40;;;6.70;99.90;;;5.62;100.00;97302.78;5069970;28;20396;-72
2023/01/11 04:15:31;;;;;;;2.73;1.33;;;6.70;99.90;;;5.70;100.00;97305.13;5069945;28;20418;-72
2023/01/11 04:18:03;;;;;;;2.55;1.40;;;6.70;99.90;;;5.80;100.00;97292.25;5069872;28;20402;-73
2023/01/11 04:20:30;;;;;;;2.20;1.30;;;6.80;99.90;;;5.84;100.00;97285.53;5073175;28;20412;-73
2023/01/11 04:22:57;;;;;;;2.10;1.25;;;6.90;99.90;;;5.79;100.00;97295.09;5073547;28;20406;-72
2023/01/11 04:25:23;;;;;;;2.13;1.20;;;6.80;99.90;;;5.99;100.00;97298.28;5073441;28;20823;-72
2023/01/11 04:27:49;;;;;;;1.63;1.38;;;7.00;99.90;;;5.88;100.00;97279.84;5073519;28;20407;-73
2023/01/11 04:30:15;;;;;;;2.97;1.33;;;6.90;99.90;;;5.80;100.00;97283.56;5073363;28;20924;-73
2023/01/11 04:32:41;;;;;;;1.30;1.20;;;6.90;99.90;;;5.77;100.00;97282.19;5073505;28;20950;-73
2023/01/11 04:35:08;;;;;;;1.30;1.20;;;6.90;99.90;;;5.78;100.00;97288.25;5072847;28;20395;-73
2023/01/11 04:37:34;;;;;;;2.90;1.20;;;6.90;99.90;;;5.81;100.00;97299.09;5073357;28;20404;-73
2023/01/11 04:40:01;;;;;;;1.60;1.30;;;6.90;99.90;;;5.83;100.00;97301.50;5073112;28;20753;-72
2023/01/11 04:42:27;;;;;;;1.80;1.30;;;6.90;99.90;;;6.02;100.00;97304.91;5073343;28;20972;-72
2023/01/11 04:44:53;;;;;;;1.52;1.23;;;7.00;99.90;;;6.06;100.00;97300.81;5073196;28;20435;-73
2023/01/11 04:47:22;;;;;;;1.65;1.20;;;7.10;99.90;;;6.06;100.00;97303.44;5071673;28;20403;-73
2023/01/11 04:49:48;;;;;;;2.05;1.35;;;7.10;99.90;;;5.92;100.00;97291.53;5072941;28;20412;-73
2023/01/11 04:52:17;;;;;;;2.63;1.15;;;7.00;99.90;;;5.82;100.00;97281.53;5073159;28;20400;-73
2023/01/11 04:54:43;;;;;;;1.45;1.20;;;6.90;99.90;;;5.78;100.00;97273.28;5072890;28;20427;-73
2023/01/11 04:57:14;;;;;;;1.40;1.20;;;6.90;99.90;;;5.75;100.00;97268.47;5072818;28;20476;-73
2023/01/11 04:59:40;;;;;;;1.40;1.30;;;6.80;99.90;;;5.73;100.00;97262.63;5072871;28;20423;-73
2023/01/11 05:02:06;;;;;;;1.33;1.23;;;6.80;99.90;;;5.73;100.00;97267.88;5072884;28;20877;-72
2023/01/11 05:04:32;;;;;;;2.00;1.30;;;6.80;99.90;;;5.75;100.00;97271.09;5072858;28;20415;-74
2023/01/11 05:06:58;;;;;;;1.40;1.20;;;6.80;99.90;;;5.84;100.00;97263.72;5072599;28;20439;-74
2023/01/11 05:09:24;;;;;;;1.42;1.33;;;6.80;99.90;;;5.75;100.00;97265.84;5072671;28;20451;-74
2023/01/11 05:11:50;;;;;;;2.72;1.40;;;6.80;99.90;;;5.77;100.00;97266.44;5072714;28;20438;-74
2023/01/11 05:14:17;;;;;;;1.90;1.20;;;6.90;99.90;;;5.91;100.00;97271.53;5068334;28;20426;-72
2023/01/11 05:16:43;;;;;;;1.60;1.30;;;6.90;99.90;;;5.74;100.00;97264.25;5068459;28;20410;-73
2023/01/11 05:19:10;;;;;;;1.40;1.30;;;6.80;99.90;;;5.65;100.00;97262.94;5063303;28;20403;-73
2023/01/11 05:21:39;;;;;;;1.48;1.30;;;6.70;99.90;;;5.57;100.00;97265.06;5060503;28;20505;-75
2023/01/11 05:24:09;;;;;;;1.40;1.30;;;6.70;99.90;;;5.60;100.00;97252.31;5063520;28;20409;-75
2023/01/11 05:26:37;;;;;;;1.40;1.30;;;6.70;99.90;;;5.57;100.00;97252.75;5060612;28;20504;-75
2023/01/11 05:29:07;;;;;;;1.40;1.30;;;6.60;99.90;;;5.60;100.00;97254.16;5062033;28;20503;-75
2023/01/11 05:31:36;;;;;;;1.45;1.35;;;6.60;99.90;;;5.49;100.00;97249.66;5061612;28;20912;-76
2023/01/11 05:34:02;;;;;;;2.05;1.30;;;6.60;99.90;;;5.43;100.00;97253.94;5061011;28;20489;-76
2023/01/11 05:36:28;;;;;;;1.38;1.27;;;6.50;99.90;;;5.56;100.00;97250.38;5063970;28;20411;-75
2023/01/11 05:38:55;;;;;;;1.23;1.13;;;6.60;99.90;;;5.44;100.00;97251.09;5066201;28;20410;-75
2023/01/11 05:41:24;;;;;;;1.50;1.30;;;6.50;99.90;;;5.43;100.00;97256.56;5074860;22;20471;-74
2023/01/11 05:46:40;;;;;;;1.70;1.30;;;6.50;99.90;;;5.45;100.00;97254.53;5066439;28;20409;-74
2023/01/11 05:49:09;;;;;;;3.20;1.38;;;6.50;99.90;;;5.46;100.00;97258.78;5051895;28;20466;-74
2023/01/11 05:51:37;;;;;;;3.22;1.23;;;6.50;99.90;;;5.48;100.00;97259.34;5033943;28;20779;-74
2023/01/11 05:54:04;;;;;;;2.65;1.45;;;6.50;99.90;;;5.43;100.00;97248.69;5053407;28;20398;-74
2023/01/11 05:56:31;;;;;;;1.65;1.40;;;6.50;99.90;;;5.55;100.00;97254.81;5068293;28;20401;-73
2023/01/11 05:58:57;;;;;;;3.47;1.27;;;6.60;99.90;;;5.54;100.00;97237.47;5055948;28;20404;-73
2023/01/11 06:01:24;;;;;;;3.00;1.40;;;6.60;99.90;;;5.56;100.00;97238.06;5051472;28;20397;-74
2023/01/11 06:03:52;;;;;;;1.40;1.20;;;6.70;99.90;;;5.59;100.00;97231.53;5049777;28;20503;-74
2023/01/11 06:06:19;;;;;;;2.90;1.50;;;6.70;99.90;;;5.75;100.00;97228.28;5049733;28;20401;-74
2023/01/11 06:08:45;;;;;;;1.33;1.10;;;6.70;99.90;;;5.68;100.00;97215.25;5049613;28;20592;-73
2023/01/11 06:11:11;;;;;;;1.88;1.20;;;6.70;99.90;;;5.69;100.00;97202.91;5049620;28;20767;-74
2023/01/11 06:13:37;;;;;;;2.65;2.03;;;6.80;99.90;;;5.72;100.00;97194.56;5049440;28;20455;-73
2023/01/11 06:16:06;;;;;;;3.70;1.70;;;6.80;99.90;;;5.80;100.00;97196.88;5049352;28;20413;-73
2023/01/11 06:18:35;;;;;;;2.10;1.40;;;6.80;99.90;;;5.81;100.00;97193.22;5050620;28;20758;-73
2023/01/11 06:21:03;;;;;;;3.30;1.50;;;6.80;99.90;;;5.81;100.00;97183.53;5051132;28;20405;-73
2023/01/11 06:23:32;;;;;;;1.40;1.30;;;6.90;99.90;;;5.76;100.00;97193.13;5050996;28;20405;-73
2023/01/11 06:26:01;;;;;;;1.77;1.50;;;6.80;99.90;;;6.03;100.00;97191.72;5051001;28;20390;-74
2023/01/11 06:28:27;;;;;;;1.35;1.25;;;6.90;99.90;;;5.97;100.00;97184.72;5054693;28;20423;-73
2023/01/11 06:30:54;;;;;;;1.50;1.27;;;7.00;99.90;;;6.12;100.00;97200.88;5044653;28;20906;-73
2023/01/11 06:33:23;;;;;;;1.40;1.30;;;7.10;99.90;;;6.20;100.00;97197.09;5050848;28;20409;-73
2023/01/11 06:35:49;;;;;;;2.38;1.25;;;7.20;99.90;;;6.04;100.00;97195.94;5033075;28;20814;-73
2023/01/11 06:38:17;;;;;;;1.83;1.30;;;7.10;99.90;;;5.97;100.00;97190.00;5050952;28;20897;-74
2023/01/11 06:40:50;;;;;;;4.90;1.60;;;7.00;99.90;;;5.96;100.00;97190.22;5052007;28;20788;-72
2023/01/11 06:43:16;;;;;;;1.70;1.30;;;7.00;99.90;;;5.89;100.00;97189.50;5053083;28;20421;-73
2023/01/11 06:45:42;;;;;;;1.85;1.50;;;6.90;99.90;;;5.82;100.00;97187.75;5042775;28;20413;-73
2023/01/11 06:48:08;;;;;;;1.70;1.40;;;6.90;99.90;;;5.88;100.00;97180.84;5055271;28;20401;-73
2023/01/11 06:50:34;;;;;;;2.30;1.38;;;6.90;99.90;;;5.84;100.00;97175.22;5059228;28;21001;-73
2023/01/11 06:53:03;;;;;;;3.00;1.35;;;6.90;99.90;;;5.87;100.00;97176.56;5061054;28;20395;-73
2023/01/11 06:55:31;;;;;;;1.20;1.10;;;6.90;99.90;;;5.84;100.00;97174.41;5060645;28;20417;-72
2023/01/11 06:57:57;;;;;;;1.60;1.40;;;6.90;99.90;;;5.89;100.00;97181.63;5059032;28;20402;-72
2023/01/11 07:00:23;;;;;;;2.10;1.30;;;6.90;99.90;;;5.90;100.00;97188.50;5060474;28;20392;-72
2023/01/11 07:02:50;;;;;;;1.45;1.30;;;7.00;99.90;;;6.10;100.00;97192.41;5060557;28;20420;-73
2023/01/11 07:05:16;;;;;;;1.40;1.30;;;7.10;99.90;;;6.27;100.00;97186.47;5069409;28;20402;-72
2023/01/11 07:07:43;;;;;;;6.38;1.48;;;7.20;99.90;;;6.14;100.00;97182.25;5070455;28;20454;-73
2023/01/11 07:10:15;;;;;;;4.68;1.50;;;7.20;99.90;;;6.04;100.00;97182.81;5052654;28;20455;-72
2023/01/11 07:12:42;;;;;;;1.67;1.10;;;7.10;99.90;;;6.07;100.00;97178.94;5070563;28;20439;-72
2023/01/11 07:15:09;;;;;;;2.27;1.20;;;7.10;99.90;;;6.33;100.00;97182.94;5070467;28;20885;-72
2023/01/11 07:17:35;;;;;;;2.17;1.30;;;7.30;99.90;;;6.30;100.00;97189.47;5070278;28;20960;-72
2023/01/11 07:20:02;;;;;;;1.80;1.20;;;7.30;99.90;;;6.50;100.00;97168.06;5070437;28;20395;-72
2023/01/11 07:22:28;;;;;;;1.25;1.17;;;7.40;99.90;;;6.37;100.00;97174.38;5063603;28;20485;-73
2023/01/11 07:24:54;;;;;;;3.70;1.40;;;7.40;99.90;;;6.35;100.00;97171.16;5052640;28;20411;-72
2023/01/11 07:27:19;;;;;;;2.03;1.35;;;7.30;99.90;;;6.26;100.00;97166.47;5036703;28;20640;-72
2023/01/11 07:29:47;;;;;;;1.23;1.10;;;7.30;99.90;;;6.39;100.00;97164.41;5042044;28;20449;-73
2023/01/11 07:32:13;;;;;;;1.70;1.20;;;7.30;99.90;;;6.48;100.00;97163.03;5049917;28;20420;-73
2023/01/11 07:34:39;;;;;;;2.05;1.25;;;7.50;99.90;;;6.53;100.00;97160.53;5050220;28;20402;-72
2023/01/11 07:37:05;;;;;;;1.55;1.23;;;7.60;99.90;;;6.65;100.00;97162.34;5050170;28;20945;-73
2023/01/11 07:39:31;;;;;;;1.93;1.40;;;7.70;99.90;;;6.65;100.00;97162.34;5050177;28;20397;-72
2023/01/11 07:44:41;;;;;;;2.10;1.23;;;7.70;99.90;;;6.92;100.00;97168.66;5043637;28;20415;-72
2023/01/11 07:47:08;;;;;;;3.72;1.40;;;7.80;99.90;;;6.89;100.00;97175.22;5032914;28;20407;-73
2023/01/11 07:49:34;;;;;;;1.33;1.20;;;7.90;99.90;;;6.86;100.00;97180.13;5029568;28;20418;-73
2023/01/11 07:52:02;;;;;;;1.30;1.20;;;7.80;99.90;;;6.83;100.00;97178.78;5029341;28;20457;-73
2023/01/11 07:54:28;;;;;;;1.80;1.35;;;7.80;99.90;;;6.93;100.00;97178.16;5039976;28;20519;-72
2023/01/11 07:56:55;;;;;;;1.47;1.27;;;7.90;99.90;;;7.22;100.00;97184.25;5044507;28;20418;-72
2023/01/11 07:59:21;;;;;;;2.33;1.30;;;8.10;99.90;;;7.29;100.00;97172.56;5039602;28;20759;-73
2023/01/11 08:01:47;;;;;;;1.37;1.20;;;8.20;99.90;;;7.25;100.00;97186.44;5052587;28;20423;-72
2023/01/11 08:04:15;;;;;;;3.35;1.40;;;8.20;99.90;;;7.29;100.00;97182.31;5041566;28;20889;-73
2023/01/11 08:06:41;;;;;;;1.63;1.20;;;8.30;99.90;;;7.34;100.00;97177.94;5053150;28;20412;-73
2023/01/11 08:09:09;;;;;;;1.70;1.13;;;8.30;99.90;;;7.31;100.00;97173.13;5042760;28;20853;-73
2023/01/11 08:14:38;;;;;;;1.42;1.20;;;8.40;99.90;;;7.48;100.00;97177.66;5050922;28;20408;-73
2023/01/11 08:17:05;;;;;;;1.73;1.10;;;8.30;99.90;;;7.39;100.00;97188.56;5053125;28;20409;-73
2023/01/11 08:19:32;;;;;;;2.22;1.50;;;8.30;99.90;;;7.32;100.00;97187.91;5036994;28;20943;-73
2023/01/11 08:21:58;;;;;;;2.55;1.30;;;8.30;99.90;;;7.20;100.00;97183.72;5044815;28;20417;-72
2023/01/11 08:24:24;;;;;;;2.97;1.30;;;8.20;99.90;;;7.55;100.00;97192.25;5052834;28;20415;-73
2023/01/11 08:26:50;;;;;;;1.73;1.20;;;8.40;99.90;;;7.51;100.00;97195.63;5033565;28;20506;-73
2023/01/11 08:29:16;;;;;;;1.67;1.15;;;8.40;99.90;;;7.36;100.00;97204.03;5046921;28;20417;-73
2023/01/11 08:31:43;;;;;;;1.70;1.25;;;8.40;99.90;;;7.43;100.00;97190.72;5049920;28;20413;-73
2023/01/11 08:34:09;;;;;;;1.52;1.27;;;8.40;99.90;;;7.42;100.00;97189.94;5033303;28;20414;-74
2023/01/11 08:36:36;;;;;;;2.37;1.33;;;8.40;99.90;;;7.45;100.00;97183.38;5033287;28;20407;-73
2023/01/11 08:39:03;;;;;;;1.50;1.30;;;8.40;99.90;;;7.47;100.00;97181.31;5048073;28;20415;-71
2023/01/11 08:41:28;;;;;;;1.30;1.20;;;8.40;99.90;;;7.48;100.00;97178.44;5052564;28;20513;-74
2023/01/11 08:43:54;;;;;;;1.30;1.20;;;8.50;99.90;;;7.52;100.00;97170.88;5036333;28;20407;-73
2023/01/11 08:46:20;;;;;;;2.60;1.50;;;8.50;99.90;;;7.48;100.00;97167.09;5033086;28;20442;-73
2023/01/11 08:48:46;;;;;;;1.37;1.10;;;8.50;99.90;;;7.51;100.00;97166.66;5036389;28;20929;-73
2023/01/11 08:51:13;;;;;;;2.10;1.27;;;8.50;99.90;;;7.52;100.00;97174.28;5051837;28;20435;-73
2023/01/11 08:53:41;;;;;;;2.28;1.70;;;8.50;99.90;;;7.54;100.00;97174.06;5033044;28;20411;-72
2023/01/11 08:56:07;;;;;;;1.95;1.50;;;8.50;99.90;;;7.58;100.00;97180.47;5032635;28;20407;-72
2023/01/11 08:58:34;;;;;;;3.90;1.40;;;8.50;99.90;;;7.68;100.00;97181.44;5036135;28;20849;-71
2023/01/11 09:01:02;;;;;;;1.05;1.02;;;8.60;99.90;;;7.66;100.00;97180.09;5051605;28;20571;-73
2023/01/11 09:03:28;;;;;;;1.40;1.30;;;8.60;99.90;;;7.80;100.00;97183.22;5043731;28;20444;-73
2023/01/11 09:05:57;;;;;;;1.45;1.10;;;8.70;99.90;;;7.91;100.00;97192.88;5044745;28;20493;-73
2023/01/11 09:08:24;;;;;;;1.30;1.20;;;8.80;99.90;;;7.92;100.00;97176.03;5036354;28;20532;-73
2023/01/11 09:10:52;;;;;;;1.55;1.42;;;8.90;99.90;;;7.91;100.00;97183.13;5034854;28;20717;-73
2023/01/11 09:13:19;;;;;;;1.55;1.20;;;8.90;99.90;;;7.88;100.00;97182.81;5051860;28;20902;-73
2023/01/11 09:15:45;;;;;;;1.27;1.17;;;8.90;99.90;;;7.97;100.00;97179.53;5051499;28;20410;-72
2023/01/11 09:18:11;;;;;;;3.30;1.30;;;8.90;99.90;;;7.89;100.00;97174.69;5051849;28;20409;-72
2023/01/11 09:20:37;;;;;;;2.95;1.27;;;8.90;99.90;;;7.83;100.00;97177.44;5036039;28;20407;-72
2023/01/11 09:23:03;;;;;;;2.40;1.40;;;8.80;99.90;;;7.84;100.00;97177.22;5050545;28;20413;-73
2023/01/11 09:25:29;;;;;;;3.30;1.27;;;8.80;99.90;;;7.87;100.00;97184.66;5051202;28;20417;-73
2023/01/11 09:27:56;;;;;;;1.35;1.10;;;8.80;99.90;;;7.92;100.00;97181.31;5051317;28;20417;-73
2023/01/11 09:30:23;;;;;;;2.72;1.20;;;8.90;99.90;;;8.02;100.00;97170.94;5051900;28;20420;-73
2023/01/11 09:32:50;;;;;;;2.90;1.50;;;9.00;99.90;;;8.14;100.00;97182.19;5052465;28;20417;-72
2023/01/11 09:35:18;;;;;;;1.50;1.25;;;9.00;99.90;;;8.14;100.00;97182.97;5047100;28;20415;-72
2023/01/11 09:37:48;;;;;;;2.10;1.30;;;9.10;99.90;;;8.11;100.00;97180.03;5043598;28;20963;-72
2023/01/11 09:40:20;;;;;;;1.00;1.00;;;9.10;99.90;;;8.09;100.00;97179.47;5043889;28;20409;-72
2023/01/11 09:42:51;;;;;;;2.13;1.10;;;9.10;99.90;;;8.13;100.00;97178.75;5051500;28;20398;-72
2023/01/11 09:45:22;;;;;;;2.22;1.20;;;9.10;99.90;;;8.23;100.00;97178.09;5040510;28;20410;-73
2023/01/11 09:47:59;;;;;;;1.33;1.10;;;9.20;99.90;;;8.16;100.00;97186.19;5048803;28;20953;-73
2023/01/11 09:50:30;;;;;;;1.40;1.08;;;9.10;99.90;;;8.17;100.00;97181.72;5044703;28;20782;-70
2023/01/11 09:53:02;;;;;;;2.15;1.30;;;9.10;99.90;;;8.31;100.00;97183.00;5034725;28;20403;-73
2023/01/11 09:55:34;;;;;;;1.85;1.27;;;9.20;99.90;;;8.23;100.00;97188.66;5046157;28;20467;-73
2023/01/11 09:58:35;;;;;;;2.00;1.10;;;9.10;99.90;;;8.18;100.00;97185.16;5051204;28;20433;-72
2023/01/11 10:01:13;;;;;;;2.35;1.20;;;9.20;99.90;;;8.20;100.00;97183.06;5048639;28;20413;-73
2023/01/11 10:04:41;;;;;;;2.30;1.20;;;9.20;99.90;;;8.37;100.00;97183.88;5049606;28;20902;-72
2023/01/11 10:07:38;;;;;;;1.80;1.40;;;9.30;99.90;;;8.26;100.00;97184.75;5014595;28;20508;-72
2023/01/11 10:10:25;;;;;;;2.88;1.30;;;9.20;99.90;;;8.20;100.00;97188.31;5039313;28;20983;-72
2023/01/11 10:13:04;;;;;;;2.50;1.42;;;9.20;99.90;;;8.22;100.00;97186.25;5047683;28;20839;-73
2023/01/11 10:15:37;;;;;;;1.95;1.33;;;9.20;99.90;;;8.19;100.00;97187.56;5033462;28;20876;-73
2023/01/11 10:18:30;;;;;;;2.80;1.50;;;9.20;99.90;;;8.18;100.00;97177.25;5030991;28;20409;-73
2023/01/11 10:21:06;;;;;;;2.90;1.50;;;9.10;99.90;;;8.22;100.00;97184.41;5038567;28;20428;-73
2023/01/11 10:23:45;;;;;;;1.85;1.30;;;9.20;99.90;;;8.23;100.00;97185.22;5041883;28;20902;-73
2023/01/11 10:26:25;;;;;;;1.73;1.30;;;9.20;99.90;;;8.23;100.00;97180.75;5029783;28;20489;-72
2023/01/11 10:29:21;;;;;;;1.48;1.30;;;9.30;99.90;;;8.33;100.00;97182.78;5033926;28;20424;-73
2023/01/11 10:37:43;;;;;;;2.07;1.27;;;9.30;99.90;;;8.36;100.00;97184.91;5044860;28;20447;-71
2023/01/11 10:42:55;;;;;;;1.85;1.27;;;9.30;99.90;;;8.41;100.00;97177.09;5037362;28;20426;-71
2023/01/11 10:45:33;;;;;;;1.48;1.30;;;9.40;99.90;;;8.44;100.00;97180.03;5045653;28;20852;-71
2023/01/11 10:48:05;;;;;;;1.30;1.20;;;9.40;99.90;;;8.60;100.00;97178.41;5049848;28;20505;-72
2023/01/11 10:50:39;;;;;;;3.15;1.63;;;9.60;99.90;;;8.49;100.00;97179.31;5049973;28;20503;-72
2023/01/11 10:53:16;;;;;;;1.55;1.30;;;9.50;99.90;;;8.43;100.00;97173.16;5041624;28;20413;-73
2023/01/11 10:55:51;;;;;;;4.13;1.30;;;9.40;99.90;;;8.39;100.00;97177.34;5041917;28;20407;-74
2023/01/11 10:58:38;;;;;;;1.60;1.25;;;9.40;99.90;;;8.49;100.00;97176.69;5041808;28;20456;-74
2023/01/11 11:01:17;;;;;;;3.25;1.33;;;9.40;99.90;;;8.38;100.00;97174.94;5050111;28;20813;-73
2023/01/11 11:04:08;;;;;;;1.30;1.10;;;9.40;99.90;;;8.38;100.00;97172.28;5049726;28;20941;-73
2023/01/11 11:06:44;;;;;;;2.20;1.30;;;9.30;99.90;;;8.38;100.00;97169.66;5054033;28;20410;-73
2023/01/11 11:09:23;;;;;;;1.20;1.10;;;9.40;99.90;;;8.39;100.00;97169.41;5047898;28;20413;-74
2023/01/11 11:11:54;;;;;;;1.67;1.40;;;9.40;99.90;;;8.38;100.00;97164.38;5040244;28;20562;-74